Terminal Aerodrome Forecast
Issued by NWS

Home | Current Version | Previous Version | Text Only | Print | Product List | Glossary On
Versions: 1 2 3 4 5 6 7 8 9 10 11 12 13 14 15 16 17
000
FTUS43 KBIS 060500
TAFMOT
TAF
KMOT 060532Z 0606/0706 25009KT P6SM SCT090
     FM061600 23010KT P6SM BKN060 OVC080
     FM062300 26015G22KT P6SM SCT045 BKN100
     FM070400 30015KT P6SM BKN015 BKN035=

USA.gov is the U.S. government's official web portal to all federal, state and local government web resources and services.